createdAt,value
2023-05-20T00:00:02.082Z,25.97
2023-05-20T00:01:02.107Z,25.98
2023-05-20T00:02:02.090Z,25.98
2023-05-20T00:03:02.203Z,25.95
2023-05-20T00:04:02.289Z,25.95
2023-05-20T00:05:02.401Z,25.98
2023-05-20T00:06:02.237Z,25.95
2023-05-20T00:07:02.338Z,25.97
2023-05-20T00:08:02.348Z,25.97
2023-05-20T00:09:02.377Z,25.97
2023-05-20T00:10:02.421Z,25.98
2023-05-20T00:11:02.490Z,25.95
2023-05-20T00:12:02.534Z,25.97
2023-05-20T00:13:02.573Z,25.97
2023-05-20T00:14:02.610Z,25.95
2023-05-20T00:15:02.630Z,25.95
2023-05-20T00:16:02.768Z,25.97
2023-05-20T00:17:02.722Z,25.95
2023-05-20T00:18:02.856Z,25.94
2023-05-20T00:19:02.886Z,25.97
2023-05-20T00:20:02.921Z,25.95
2023-05-20T00:21:02.936Z,25.95
2023-05-20T00:22:02.955Z,25.95
2023-05-20T00:23:03.027Z,25.97
2023-05-20T00:24:03.068Z,25.95
2023-05-20T00:25:03.115Z,25.95
2023-05-20T00:26:03.201Z,25.94
2023-05-20T00:27:03.210Z,25.94
2023-05-20T00:28:03.192Z,25.94
2023-05-20T00:29:03.218Z,25.94
2023-05-20T00:30:03.299Z,25.94
2023-05-20T00:31:03.335Z,25.95
2023-05-20T00:32:03.374Z,25.92
2023-05-20T00:33:03.452Z,25.94
2023-05-20T00:34:03.453Z,25.94
2023-05-20T00:35:03.484Z,25.95
2023-05-20T00:36:03.508Z,25.95
2023-05-20T00:37:03.552Z,25.95
2023-05-20T00:38:03.627Z,25.92
2023-05-20T00:39:03.635Z,25.94
2023-05-20T00:40:03.675Z,25.95
2023-05-20T00:41:03.722Z,25.92
2023-05-20T00:42:03.823Z,25.95
2023-05-20T00:43:03.825Z,25.94
2023-05-20T00:44:03.851Z,25.94
2023-05-20T00:45:03.882Z,25.94
2023-05-20T00:46:03.981Z,25.95
2023-05-20T00:47:03.975Z,25.95
2023-05-20T00:48:04.137Z,25.95
2023-05-20T00:49:04.053Z,25.94
2023-05-20T00:50:04.160Z,25.97
2023-05-20T00:51:04.190Z,25.94
2023-05-20T00:52:04.204Z,25.92
2023-05-20T00:53:04.267Z,25.94
2023-05-20T00:54:04.310Z,25.94
2023-05-20T00:55:04.314Z,25.92
2023-05-20T00:56:04.379Z,25.94
2023-05-20T00:57:04.451Z,25.94
2023-05-20T00:58:04.497Z,25.92
2023-05-20T00:59:04.560Z,25.94
2023-05-20T01:00:04.572Z,25.94
2023-05-20T01:01:04.642Z,25.95
2023-05-20T01:02:04.746Z,25.92
2023-05-20T01:03:04.790Z,25.95
2023-05-20T01:04:04.759Z,25.94
2023-05-20T01:05:04.787Z,25.94
2023-05-20T01:06:04.854Z,25.92
2023-05-20T01:07:04.896Z,25.92
2023-05-20T01:08:04.959Z,25.92
2023-05-20T01:09:04.941Z,25.92
2023-05-20T01:10:05.004Z,25.91
2023-05-20T01:11:05.075Z,25.92
2023-05-20T01:12:05.148Z,25.91
2023-05-20T01:13:05.166Z,25.92
2023-05-20T01:14:05.214Z,25.92
2023-05-20T01:15:05.259Z,25.91
2023-05-20T01:16:05.413Z,25.92
2023-05-20T01:17:05.357Z,25.92
2023-05-20T01:18:05.607Z,25.94
2023-05-20T01:19:05.538Z,25.91
2023-05-20T01:20:05.532Z,25.92
2023-05-20T01:21:05.564Z,25.91
2023-05-20T01:22:05.605Z,25.92
2023-05-20T01:23:05.650Z,25.92
2023-05-20T01:24:05.724Z,25.92
2023-05-20T01:25:05.759Z,25.92
2023-05-20T01:26:05.805Z,25.91
2023-05-20T01:27:05.842Z,25.92
2023-05-20T01:28:05.869Z,25.92
2023-05-20T01:29:05.927Z,25.92
2023-05-20T01:30:06.038Z,25.91
2023-05-20T01:31:06.063Z,25.91
2023-05-20T01:32:06.102Z,25.91
2023-05-20T01:33:06.182Z,25.92
2023-05-20T01:34:06.214Z,25.91
2023-05-20T01:35:06.231Z,25.92
2023-05-20T01:36:06.357Z,25.90
2023-05-20T01:37:06.345Z,25.91
2023-05-20T01:38:06.410Z,25.94
2023-05-20T01:39:06.477Z,25.91
2023-05-20T01:40:06.519Z,25.91
2023-05-20T01:41:06.551Z,25.91
2023-05-20T01:42:06.605Z,25.88
2023-05-20T01:43:06.593Z,25.92
2023-05-20T01:44:06.703Z,25.90
2023-05-20T01:45:06.722Z,25.92
2023-05-20T01:46:06.809Z,25.91
2023-05-20T01:47:06.861Z,25.91
2023-05-20T01:48:06.882Z,25.88
2023-05-20T01:49:06.879Z,25.91
2023-05-20T01:50:06.976Z,25.91
2023-05-20T01:51:07.021Z,25.91
2023-05-20T01:52:07.051Z,25.87
2023-05-20T01:53:07.074Z,25.90
2023-05-20T01:54:07.116Z,25.91
2023-05-20T01:55:07.190Z,25.91
2023-05-20T01:56:07.266Z,25.91
2023-05-20T01:57:07.305Z,25.90
2023-05-20T01:58:07.322Z,25.92
2023-05-20T01:59:07.392Z,25.91
2023-05-20T02:00:07.416Z,25.91
2023-05-20T02:01:07.557Z,25.91
2023-05-20T02:02:07.545Z,25.92
2023-05-20T02:03:07.770Z,25.91
2023-05-20T02:04:07.640Z,25.90
2023-05-20T02:05:07.665Z,25.90
2023-05-20T02:06:07.787Z,25.90
2023-05-20T02:07:07.752Z,25.90
2023-05-20T02:08:07.855Z,25.90
2023-05-20T02:09:07.873Z,25.88
2023-05-20T02:10:07.926Z,25.90
2023-05-20T02:11:07.962Z,25.91
2023-05-20T02:12:07.996Z,25.90
2023-05-20T02:13:08.057Z,25.88
2023-05-20T02:14:08.136Z,25.90
2023-05-20T02:15:08.192Z,25.88
2023-05-20T02:16:08.228Z,25.90
2023-05-20T02:17:08.257Z,25.88
2023-05-20T02:18:08.426Z,25.88
2023-05-20T02:19:08.499Z,25.88
2023-05-20T02:20:08.437Z,25.88
2023-05-20T02:21:08.499Z,25.90
2023-05-20T02:22:08.508Z,25.90
2023-05-20T02:23:08.592Z,25.88
2023-05-20T02:24:08.632Z,25.88
2023-05-20T02:25:08.693Z,25.90
2023-05-20T02:26:08.719Z,25.87
2023-05-20T02:27:08.799Z,25.88
2023-05-20T02:28:08.845Z,25.87
2023-05-20T02:29:08.908Z,25.87
2023-05-20T02:30:08.961Z,25.88
2023-05-20T02:31:08.994Z,25.88
2023-05-20T02:32:09.066Z,25.87
2023-05-20T02:33:09.168Z,25.88
2023-05-20T02:34:09.203Z,25.87
2023-05-20T02:35:09.185Z,25.87
2023-05-20T02:36:09.265Z,25.88
2023-05-20T02:37:09.293Z,25.88
2023-05-20T02:38:09.349Z,25.88
2023-05-20T02:39:09.411Z,25.90
2023-05-20T02:40:09.509Z,25.88
2023-05-20T02:41:09.494Z,25.90
2023-05-20T02:42:09.553Z,25.87
2023-05-20T02:43:09.644Z,25.87
2023-05-20T02:44:09.689Z,25.87
2023-05-20T02:45:09.759Z,25.87
2023-05-20T02:46:09.856Z,25.87
2023-05-20T02:47:09.841Z,25.85
2023-05-20T02:48:09.918Z,25.87
2023-05-20T02:49:10.020Z,25.87
2023-05-20T02:50:09.993Z,25.85
2023-05-20T02:51:10.021Z,25.90
2023-05-20T02:52:10.062Z,25.85
2023-05-20T02:53:10.155Z,25.85
2023-05-20T02:54:10.230Z,25.85
2023-05-20T02:55:10.241Z,25.87
2023-05-20T02:56:10.293Z,25.88
2023-05-20T02:57:10.355Z,25.85
2023-05-20T02:58:10.382Z,25.87
2023-05-20T02:59:10.461Z,25.87
2023-05-20T03:00:10.503Z,25.88
2023-05-20T03:01:10.569Z,25.84
2023-05-20T03:02:10.634Z,25.85
2023-05-20T03:03:10.705Z,25.85
2023-05-20T03:04:10.722Z,25.85
2023-05-20T03:05:10.794Z,25.87
2023-05-20T03:06:10.850Z,25.85
2023-05-20T03:07:10.862Z,25.85
2023-05-20T03:08:10.927Z,25.88
2023-05-20T03:09:10.937Z,25.88
2023-05-20T03:10:11.027Z,25.85
2023-05-20T03:11:11.083Z,25.87
2023-05-20T03:12:11.166Z,25.84
2023-05-20T03:13:11.206Z,25.88
2023-05-20T03:14:11.250Z,25.87
2023-05-20T03:15:11.267Z,25.87
2023-05-20T03:16:11.347Z,25.84
2023-05-20T03:17:11.418Z,25.85
2023-05-20T03:18:11.403Z,25.85
2023-05-20T03:19:11.565Z,25.87
2023-05-20T03:20:11.536Z,25.85
2023-05-20T03:21:11.643Z,25.84
2023-05-20T03:22:11.659Z,25.87
2023-05-20T03:23:11.689Z,25.85
2023-05-20T03:24:11.762Z,25.85
2023-05-20T03:25:11.782Z,25.87
2023-05-20T03:26:11.844Z,25.85
2023-05-20T03:27:11.933Z,25.84
2023-05-20T03:28:11.924Z,25.85
2023-05-20T03:29:11.998Z,25.85
2023-05-20T03:30:12.049Z,25.85
2023-05-20T03:31:12.233Z,25.85
2023-05-20T03:32:12.229Z,25.85
2023-05-20T03:33:12.235Z,25.84
2023-05-20T03:34:12.258Z,25.84
2023-05-20T03:35:12.354Z,25.85
2023-05-20T03:36:12.402Z,25.87
2023-05-20T03:37:12.459Z,25.85
2023-05-20T03:38:12.508Z,25.85
2023-05-20T03:39:12.525Z,25.84
2023-05-20T03:40:12.607Z,25.84
2023-05-20T03:41:12.638Z,25.84
2023-05-20T03:42:12.743Z,25.85
2023-05-20T03:43:12.742Z,25.84
2023-05-20T03:44:12.770Z,25.87
2023-05-20T03:45:12.858Z,25.83
2023-05-20T03:46:12.949Z,25.83
2023-05-20T03:47:12.946Z,25.84
2023-05-20T03:48:13.041Z,25.87
2023-05-20T03:49:13.060Z,25.84
2023-05-20T03:50:13.090Z,25.83
2023-05-20T03:51:13.178Z,25.84
2023-05-20T03:52:13.216Z,25.85
2023-05-20T03:53:13.231Z,25.84
2023-05-20T03:54:13.324Z,25.85
2023-05-20T03:55:13.362Z,25.87
2023-05-20T03:56:13.437Z,25.84
2023-05-20T03:57:13.550Z,25.81
2023-05-20T03:58:13.511Z,25.84
2023-05-20T03:59:13.629Z,25.84
2023-05-20T04:00:13.683Z,25.85
2023-05-20T04:01:13.748Z,25.83
2023-05-20T04:02:13.836Z,25.84
2023-05-20T04:03:13.834Z,25.84
2023-05-20T04:04:13.985Z,25.83
2023-05-20T04:05:13.968Z,25.84
2023-05-20T04:06:13.981Z,25.83
2023-05-20T04:07:14.026Z,25.84
2023-05-20T04:08:14.106Z,25.84
2023-05-20T04:09:14.142Z,25.85
2023-05-20T04:10:14.169Z,25.83
2023-05-20T04:11:14.263Z,25.85
2023-05-20T04:12:14.297Z,25.84
2023-05-20T04:13:14.376Z,25.85
2023-05-20T04:14:14.403Z,25.85
2023-05-20T04:15:14.501Z,25.84
2023-05-20T04:16:14.591Z,25.85
2023-05-20T04:17:14.559Z,25.84
2023-05-20T04:18:14.724Z,25.84
2023-05-20T04:19:14.709Z,25.84
2023-05-20T04:20:14.801Z,25.84
2023-05-20T04:21:14.839Z,25.80
2023-05-20T04:22:14.843Z,25.85
2023-05-20T04:23:14.914Z,25.84
2023-05-20T04:24:14.975Z,25.87
2023-05-20T04:25:15.092Z,25.85
2023-05-20T04:26:15.049Z,25.84
2023-05-20T04:27:15.111Z,25.83
2023-05-20T04:28:15.159Z,25.85
2023-05-20T04:29:15.266Z,25.85
2023-05-20T04:30:15.316Z,25.84
2023-05-20T04:31:15.358Z,25.85
2023-05-20T04:32:15.504Z,25.85
2023-05-20T04:33:15.581Z,25.84
2023-05-20T04:34:15.565Z,25.83
2023-05-20T04:35:15.578Z,25.84
2023-05-20T04:36:15.613Z,25.84
2023-05-20T04:37:15.697Z,25.84
2023-05-20T04:38:15.732Z,25.84
2023-05-20T04:39:15.777Z,25.83
2023-05-20T04:40:15.865Z,25.85
2023-05-20T04:41:15.916Z,25.84
2023-05-20T04:42:15.925Z,25.84
2023-05-20T04:43:16.030Z,25.83
2023-05-20T04:44:16.088Z,25.84
2023-05-20T04:45:16.142Z,25.85
2023-05-20T04:46:16.213Z,25.84
2023-05-20T04:47:16.236Z,25.84
2023-05-20T04:48:16.322Z,25.84
2023-05-20T04:49:16.369Z,25.84
2023-05-20T04:50:16.432Z,25.88
2023-05-20T04:51:16.486Z,25.83
2023-05-20T04:52:16.511Z,25.84
2023-05-20T04:53:16.605Z,25.87
2023-05-20T04:54:16.595Z,25.85
2023-05-20T04:55:16.666Z,25.85
2023-05-20T04:56:16.707Z,25.87
2023-05-20T04:57:16.949Z,25.85
2023-05-20T04:58:16.831Z,25.85
2023-05-20T04:59:16.902Z,25.85
2023-05-20T05:00:16.924Z,25.87
2023-05-20T05:01:17.064Z,25.85
2023-05-20T05:02:17.042Z,25.87
2023-05-20T05:03:17.129Z,25.88
2023-05-20T05:04:17.297Z,25.87
2023-05-20T05:05:17.195Z,25.87
2023-05-20T05:06:17.242Z,25.85
2023-05-20T05:07:17.327Z,25.87
2023-05-20T05:08:17.440Z,25.88
2023-05-20T05:09:17.420Z,25.85
2023-05-20T05:10:17.449Z,25.87
2023-05-20T05:11:17.504Z,25.88
2023-05-20T05:12:17.569Z,25.85
2023-05-20T05:13:17.608Z,25.88
2023-05-20T05:14:17.676Z,25.87
2023-05-20T05:15:17.726Z,25.87
2023-05-20T05:16:17.836Z,25.85
2023-05-20T05:17:17.810Z,25.85
2023-05-20T05:18:17.894Z,25.87
2023-05-20T05:19:17.965Z,25.88
2023-05-20T05:20:18.013Z,25.88
2023-05-20T05:21:18.016Z,25.88
2023-05-20T05:22:18.084Z,25.87
2023-05-20T05:23:18.168Z,25.87
2023-05-20T05:24:18.193Z,25.85
2023-05-20T05:25:18.200Z,25.87
2023-05-20T05:26:18.279Z,25.90
2023-05-20T05:27:18.330Z,25.87
2023-05-20T05:28:18.380Z,25.90
2023-05-20T05:29:18.400Z,25.88
2023-05-20T05:30:18.451Z,25.85
2023-05-20T05:31:18.527Z,25.87
2023-05-20T05:32:18.697Z,25.90
2023-05-20T05:33:18.712Z,25.88
2023-05-20T05:34:18.669Z,25.90
2023-05-20T05:35:18.693Z,25.90
2023-05-20T05:36:18.791Z,25.91
2023-05-20T05:37:18.780Z,25.90
2023-05-20T05:38:18.855Z,25.88
2023-05-20T05:39:18.878Z,25.92
2023-05-20T05:40:18.974Z,25.90
2023-05-20T05:41:19.043Z,25.91
2023-05-20T05:42:19.055Z,25.92
2023-05-20T05:43:19.098Z,25.92
2023-05-20T05:44:19.125Z,25.92
2023-05-20T05:45:19.157Z,25.95
2023-05-20T05:46:19.299Z,25.94
2023-05-20T05:47:19.279Z,25.95
2023-05-20T05:48:19.330Z,25.95
2023-05-20T05:49:19.393Z,25.97
2023-05-20T05:50:19.406Z,25.95
2023-05-20T05:51:19.444Z,25.97
2023-05-20T05:52:19.505Z,25.97
2023-05-20T05:53:19.571Z,25.98
2023-05-20T05:54:19.590Z,25.95
2023-05-20T05:55:19.617Z,25.97
2023-05-20T05:56:19.688Z,25.97
2023-05-20T05:57:19.698Z,26.00
2023-05-20T05:58:19.755Z,25.98
2023-05-20T05:59:19.815Z,25.97
2023-05-20T06:00:19.881Z,25.98
2023-05-20T06:01:20.011Z,25.98
2023-05-20T06:02:19.955Z,25.97
2023-05-20T06:03:20.102Z,25.97
2023-05-20T06:04:20.087Z,25.97
2023-05-20T06:05:20.121Z,25.95
2023-05-20T06:06:20.109Z,25.97
2023-05-20T06:07:20.177Z,25.95
2023-05-20T06:08:20.182Z,25.95
2023-05-20T06:09:20.239Z,25.98
2023-05-20T06:10:20.269Z,25.97
2023-05-20T06:11:20.303Z,25.98
2023-05-20T06:12:20.383Z,25.97
2023-05-20T06:13:20.369Z,25.95
2023-05-20T06:14:20.431Z,25.95
2023-05-20T06:15:20.490Z,25.97
2023-05-20T06:16:20.570Z,25.97
2023-05-20T06:17:20.560Z,25.98
2023-05-20T06:18:20.621Z,25.97
2023-05-20T06:19:20.745Z,25.98
2023-05-20T06:20:20.672Z,26.00
2023-05-20T06:21:20.702Z,25.94
2023-05-20T06:22:20.745Z,25.97
2023-05-20T06:23:20.790Z,25.95
2023-05-20T06:24:23.036Z,25.94
2023-05-20T06:25:20.869Z,25.97
2023-05-20T06:26:20.874Z,25.95
2023-05-20T06:27:20.876Z,25.98
2023-05-20T06:28:20.819Z,25.95
2023-05-20T06:29:20.872Z,25.98
2023-05-20T06:30:20.799Z,25.97
2023-05-20T06:31:20.859Z,26.00
2023-05-20T06:32:20.811Z,25.97
2023-05-20T06:33:20.765Z,25.98
2023-05-20T06:34:20.765Z,25.98
2023-05-20T06:35:20.790Z,25.98
2023-05-20T06:36:20.782Z,25.97
2023-05-20T06:37:20.743Z,25.98
2023-05-20T06:38:20.793Z,25.97
2023-05-20T06:39:20.760Z,25.98
2023-05-20T06:40:20.720Z,25.98
2023-05-20T06:41:20.704Z,25.97
2023-05-20T06:42:20.722Z,25.98
2023-05-20T06:43:20.733Z,25.95
2023-05-20T06:44:20.691Z,25.97
2023-05-20T06:45:20.722Z,25.98
2023-05-20T06:46:20.726Z,25.98
2023-05-20T06:47:20.730Z,25.98
2023-05-20T06:48:20.668Z,25.97
2023-05-20T06:49:20.746Z,25.98
2023-05-20T06:50:20.682Z,26.00
2023-05-20T06:51:20.635Z,25.98
2023-05-20T06:52:20.646Z,26.01
2023-05-20T06:53:20.697Z,26.00
2023-05-20T06:54:20.611Z,26.02
2023-05-20T06:55:20.634Z,26.04
2023-05-20T06:56:20.717Z,26.02
2023-05-20T06:57:20.601Z,26.02
2023-05-20T06:58:20.628Z,26.04
2023-05-20T06:59:20.641Z,26.05
2023-05-20T07:00:20.603Z,26.07
2023-05-20T07:01:20.670Z,26.07
2023-05-20T07:02:20.621Z,26.07
2023-05-20T07:03:20.594Z,26.08
2023-05-20T07:04:20.714Z,26.09
2023-05-20T07:05:20.631Z,26.08
2023-05-20T07:06:20.676Z,26.09
2023-05-20T07:07:20.735Z,26.11
2023-05-20T07:08:20.792Z,26.11
2023-05-20T07:09:20.814Z,26.09
2023-05-20T07:10:20.875Z,26.12
2023-05-20T07:11:20.870Z,26.14
2023-05-20T07:12:20.928Z,26.11
2023-05-20T07:13:20.932Z,26.12
2023-05-20T07:14:20.993Z,26.12
2023-05-20T07:15:20.975Z,26.12
2023-05-20T07:16:21.093Z,26.15
2023-05-20T07:17:21.067Z,26.15
2023-05-20T07:18:21.121Z,26.17
2023-05-20T07:19:21.227Z,26.12
2023-05-20T07:20:21.264Z,26.17
2023-05-20T07:21:21.201Z,26.17
2023-05-20T07:22:21.238Z,26.12
2023-05-20T07:23:21.312Z,26.17
2023-05-20T07:24:21.325Z,26.15
2023-05-20T07:25:21.547Z,26.17
2023-05-20T07:26:21.438Z,26.15
2023-05-20T07:27:21.444Z,26.17
2023-05-20T07:28:21.618Z,26.14
2023-05-20T07:29:21.565Z,26.17
2023-05-20T07:30:21.630Z,26.17
2023-05-20T07:31:21.662Z,26.19
2023-05-20T07:32:21.722Z,26.18
2023-05-20T07:33:21.753Z,26.19
2023-05-20T07:34:21.752Z,26.18
2023-05-20T07:35:21.805Z,26.18
2023-05-20T07:36:21.815Z,26.18
2023-05-20T07:37:21.815Z,26.18
2023-05-20T07:38:21.873Z,26.19
2023-05-20T07:39:21.939Z,26.18
2023-05-20T07:40:21.946Z,26.19
2023-05-20T07:41:21.947Z,26.21
2023-05-20T07:42:22.062Z,26.22
2023-05-20T07:43:22.086Z,26.19
2023-05-20T07:44:22.136Z,26.21
2023-05-20T07:45:22.178Z,26.22
2023-05-20T07:46:22.221Z,26.21
2023-05-20T07:47:22.301Z,26.19
2023-05-20T07:48:22.302Z,26.22
2023-05-20T07:49:22.376Z,26.22
2023-05-20T07:50:22.409Z,26.21
2023-05-20T07:51:22.413Z,26.22
2023-05-20T07:52:22.483Z,26.19
2023-05-20T07:53:22.517Z,26.22
2023-05-20T07:54:22.526Z,26.22
2023-05-20T07:55:22.616Z,26.21
2023-05-20T07:56:22.677Z,26.22
2023-05-20T07:57:22.685Z,26.21
2023-05-20T07:58:22.791Z,26.21
2023-05-20T07:59:22.786Z,26.19
2023-05-20T08:00:23.024Z,26.22
2023-05-20T08:01:22.891Z,26.21
2023-05-20T08:02:22.962Z,26.21
2023-05-20T08:03:22.952Z,26.22
2023-05-20T08:04:23.009Z,26.22
2023-05-20T08:05:23.025Z,26.21
2023-05-20T08:06:23.042Z,26.22
2023-05-20T08:07:23.160Z,26.22
2023-05-20T08:08:23.115Z,26.21
2023-05-20T08:09:23.166Z,26.21
2023-05-20T08:10:23.286Z,26.21
2023-05-20T08:11:23.228Z,26.22
2023-05-20T08:12:23.291Z,26.22
2023-05-20T08:13:23.347Z,26.22
2023-05-20T08:14:23.404Z,26.24
2023-05-20T08:15:24.121Z,26.24
2023-05-20T08:16:23.522Z,26.24
2023-05-20T08:17:23.615Z,26.22
2023-05-20T08:18:23.504Z,26.22
2023-05-20T08:19:23.603Z,26.24
2023-05-20T08:20:23.609Z,26.24
2023-05-20T08:21:23.871Z,26.22
2023-05-20T08:22:23.724Z,26.24
2023-05-20T08:23:23.734Z,26.25
2023-05-20T08:24:23.740Z,26.24
2023-05-20T08:25:23.819Z,26.27
2023-05-20T08:26:23.894Z,26.25
2023-05-20T08:27:23.927Z,26.28
2023-05-20T08:28:23.909Z,26.27
2023-05-20T08:29:23.986Z,26.27
2023-05-20T08:30:23.971Z,26.28
2023-05-20T08:31:24.052Z,26.27
2023-05-20T08:32:24.077Z,26.28
2023-05-20T08:33:24.627Z,26.27
2023-05-20T08:34:24.105Z,26.27
2023-05-20T08:35:24.836Z,26.28
2023-05-20T08:36:24.250Z,26.27
2023-05-20T08:37:24.231Z,26.29
2023-05-20T08:38:24.275Z,26.29
2023-05-20T08:39:24.348Z,26.31
2023-05-20T08:40:24.342Z,26.29
2023-05-20T08:41:24.414Z,26.28
2023-05-20T08:42:24.427Z,26.32
2023-05-20T08:43:24.475Z,26.31
2023-05-20T08:44:24.490Z,26.34
2023-05-20T08:45:24.491Z,26.35
2023-05-20T08:46:24.614Z,26.32
2023-05-20T08:47:24.562Z,26.34
2023-05-20T08:48:24.562Z,26.32
2023-05-20T08:49:24.569Z,26.32
2023-05-20T08:50:24.568Z,26.34
2023-05-20T08:51:24.580Z,26.35
2023-05-20T08:52:24.599Z,26.34
2023-05-20T08:53:24.612Z,26.36
2023-05-20T08:54:24.610Z,26.35
2023-05-20T08:55:24.607Z,26.38
2023-05-20T08:56:24.664Z,26.39
2023-05-20T08:57:24.689Z,26.36
2023-05-20T08:58:24.679Z,26.36
2023-05-20T08:59:24.686Z,26.38
2023-05-20T09:00:24.701Z,26.36
2023-05-20T09:01:24.741Z,26.36
2023-05-20T09:02:24.778Z,26.38
2023-05-20T09:03:24.771Z,26.35
2023-05-20T09:04:24.859Z,26.38
2023-05-20T09:05:24.775Z,26.38
2023-05-20T09:06:24.785Z,26.40
2023-05-20T09:07:24.814Z,26.36
2023-05-20T09:08:24.850Z,26.35
2023-05-20T09:09:24.821Z,26.38
2023-05-20T09:10:24.834Z,26.36
2023-05-20T09:11:24.876Z,26.38
2023-05-20T09:12:24.875Z,26.39
2023-05-20T09:13:24.917Z,26.40
2023-05-20T09:14:24.886Z,26.38
2023-05-20T09:15:24.898Z,26.40
2023-05-20T09:16:24.995Z,26.40
2023-05-20T09:17:24.952Z,26.40
2023-05-20T09:18:24.947Z,26.42
2023-05-20T09:19:25.027Z,26.42
2023-05-20T09:20:24.954Z,26.38
2023-05-20T09:21:24.994Z,26.38
2023-05-20T09:22:25.051Z,26.42
2023-05-20T09:23:25.019Z,26.38
2023-05-20T09:24:25.009Z,26.39
2023-05-20T09:25:25.030Z,26.40
2023-05-20T09:26:25.029Z,26.39
2023-05-20T09:27:25.031Z,26.40
2023-05-20T09:28:25.180Z,26.40
2023-05-20T09:29:25.051Z,26.39
2023-05-20T09:30:25.060Z,26.42
2023-05-20T09:31:25.080Z,26.40
2023-05-20T09:32:25.084Z,26.42
2023-05-20T09:33:25.069Z,26.42
2023-05-20T09:34:25.102Z,26.42
2023-05-20T09:35:25.088Z,26.40
2023-05-20T09:36:25.096Z,26.38
2023-05-20T09:37:25.108Z,26.42
2023-05-20T09:38:25.114Z,26.42
2023-05-20T09:39:25.100Z,26.43
2023-05-20T09:40:25.113Z,26.42
2023-05-20T09:41:25.132Z,26.42
2023-05-20T09:42:25.115Z,26.43
2023-05-20T09:43:25.107Z,26.40
2023-05-20T09:44:25.162Z,26.42
2023-05-20T09:45:25.173Z,26.43
2023-05-20T09:46:25.182Z,26.42
2023-05-20T09:47:25.170Z,26.43
2023-05-20T09:48:25.177Z,26.43
2023-05-20T09:49:25.195Z,26.43
2023-05-20T09:50:25.240Z,26.45
2023-05-20T09:51:25.244Z,26.42
2023-05-20T09:52:25.248Z,26.45
2023-05-20T09:53:25.252Z,26.42
2023-05-20T09:54:25.267Z,26.42
2023-05-20T09:55:25.267Z,26.43
2023-05-20T09:56:25.343Z,26.42
2023-05-20T09:57:25.308Z,26.43
2023-05-20T09:58:25.249Z,26.45
2023-05-20T09:59:25.302Z,26.42
2023-05-20T10:00:25.304Z,26.45
2023-05-20T10:01:25.536Z,26.43
2023-05-20T10:02:25.379Z,26.48
2023-05-20T10:03:25.460Z,26.45
2023-05-20T10:04:25.333Z,26.46
2023-05-20T10:05:25.337Z,26.46
2023-05-20T10:06:25.355Z,26.46
2023-05-20T10:07:37.878Z,26.46
2023-05-20T10:08:26.330Z,26.48
2023-05-20T10:09:25.314Z,26.45
2023-05-20T10:10:25.317Z,26.49
2023-05-20T10:11:25.338Z,26.45
2023-05-20T10:12:25.312Z,26.48
2023-05-20T10:13:25.298Z,26.45
2023-05-20T10:14:25.264Z,26.45
2023-05-20T10:15:25.310Z,26.45
2023-05-20T10:16:25.382Z,26.49
2023-05-20T10:17:25.298Z,26.48
2023-05-20T10:18:25.285Z,26.48
2023-05-20T10:19:25.826Z,26.50
2023-05-20T10:20:25.207Z,26.49
2023-05-20T10:21:25.287Z,26.48
2023-05-20T10:22:25.261Z,26.49
2023-05-20T10:23:25.421Z,26.48
2023-05-20T10:24:25.211Z,26.48
2023-05-20T10:25:25.225Z,26.48
2023-05-20T10:26:25.247Z,26.48
2023-05-20T10:27:25.208Z,26.49
2023-05-20T10:28:25.198Z,26.50
2023-05-20T10:29:25.151Z,26.50
2023-05-20T10:30:25.211Z,26.49
2023-05-20T10:31:25.144Z,26.48
2023-05-20T10:32:25.185Z,26.49
2023-05-20T10:33:25.226Z,26.49
2023-05-20T10:34:25.129Z,26.50
2023-05-20T10:35:25.146Z,26.50
2023-05-20T10:36:25.148Z,26.49
2023-05-20T10:37:25.117Z,26.52
2023-05-20T10:38:25.123Z,26.50
2023-05-20T10:39:25.099Z,26.52
2023-05-20T10:40:25.132Z,26.49
2023-05-20T10:41:25.158Z,26.53
2023-05-20T10:42:25.080Z,26.53
2023-05-20T10:43:25.060Z,26.53
2023-05-20T10:44:25.105Z,26.52
2023-05-20T10:45:25.267Z,26.52
2023-05-20T10:46:34.955Z,26.48
2023-05-20T10:47:26.636Z,26.50
2023-05-20T10:48:25.186Z,26.52
2023-05-20T10:49:27.695Z,26.52
2023-05-20T10:50:25.027Z,26.52
2023-05-20T10:51:25.002Z,26.50
2023-05-20T10:52:25.004Z,26.53
2023-05-20T10:53:33.310Z,26.53
2023-05-20T10:54:26.026Z,26.52
2023-05-20T10:55:25.005Z,26.53
2023-05-20T10:56:24.974Z,26.53
2023-05-20T10:57:24.985Z,26.53
2023-05-20T10:58:24.983Z,26.55
2023-05-20T10:59:25.003Z,26.53
2023-05-20T11:00:24.998Z,26.55
2023-05-20T11:01:24.994Z,26.55
2023-05-20T11:02:24.945Z,26.56
2023-05-20T11:03:25.032Z,26.55
2023-05-20T11:04:25.099Z,26.55
2023-05-20T11:05:24.938Z,26.53
2023-05-20T11:06:24.933Z,26.56
2023-05-20T11:07:24.950Z,26.58
2023-05-20T11:08:29.084Z,26.55
2023-05-20T11:09:24.907Z,26.56
2023-05-20T11:10:24.911Z,26.55
2023-05-20T11:11:24.937Z,26.56
2023-05-20T11:12:25.021Z,26.59
2023-05-20T11:13:25.003Z,26.56
2023-05-20T11:14:24.891Z,26.58
2023-05-20T11:15:24.908Z,26.56
2023-05-20T11:16:24.919Z,26.58
2023-05-20T11:17:24.997Z,26.59
2023-05-20T11:18:24.848Z,26.58
2023-05-20T11:19:24.864Z,26.60
2023-05-20T11:20:24.846Z,26.58
2023-05-20T11:21:24.843Z,26.58
2023-05-20T11:22:24.886Z,26.60
2023-05-20T11:23:24.856Z,26.59
2023-05-20T11:24:24.828Z,26.59
2023-05-20T11:25:24.813Z,26.58
2023-05-20T11:26:24.819Z,26.60
2023-05-20T11:27:24.824Z,26.59
2023-05-20T11:28:24.797Z,26.58
2023-05-20T11:29:24.792Z,26.58
2023-05-20T11:30:24.819Z,26.58
2023-05-20T11:31:24.812Z,26.59
2023-05-20T11:32:24.830Z,26.58
2023-05-20T11:33:24.751Z,26.59
2023-05-20T11:34:26.778Z,26.59
2023-05-20T11:35:24.871Z,26.58
2023-05-20T11:36:27.761Z,26.59
2023-05-20T11:37:24.863Z,26.60
2023-05-20T11:38:24.873Z,26.60
2023-05-20T11:39:24.824Z,26.59
2023-05-20T11:40:24.974Z,26.59
2023-05-20T11:41:24.833Z,26.62
2023-05-20T11:42:24.901Z,26.62
2023-05-20T11:43:24.834Z,26.60
2023-05-20T11:44:24.871Z,26.59
2023-05-20T11:45:24.839Z,26.62
2023-05-20T11:46:24.859Z,26.60
2023-05-20T11:47:24.808Z,26.62
2023-05-20T11:48:24.837Z,26.62
2023-05-20T11:49:24.809Z,26.60
2023-05-20T11:50:24.792Z,26.63
2023-05-20T11:51:24.792Z,26.62
2023-05-20T11:52:24.755Z,26.62
2023-05-20T11:53:24.813Z,26.62
2023-05-20T11:54:24.793Z,26.60
2023-05-20T11:55:24.766Z,26.62
2023-05-20T11:56:24.790Z,26.62
2023-05-20T11:57:24.770Z,26.60
2023-05-20T11:58:24.738Z,26.60
2023-05-20T11:59:24.744Z,26.63
2023-05-20T12:00:25.493Z,26.63
2023-05-20T12:01:24.914Z,26.62
2023-05-20T12:02:24.892Z,26.62
2023-05-20T12:03:24.814Z,26.63
2023-05-20T12:04:24.706Z,26.63
2023-05-20T12:05:24.693Z,26.62
2023-05-20T12:06:24.698Z,26.66
2023-05-20T12:07:24.846Z,26.62
2023-05-20T12:08:24.693Z,26.63
2023-05-20T12:09:24.635Z,26.64
2023-05-20T12:10:24.654Z,26.64
2023-05-20T12:11:24.664Z,26.64
2023-05-20T12:12:24.631Z,26.66
2023-05-20T12:13:24.622Z,26.64
2023-05-20T12:14:24.621Z,26.64
2023-05-20T12:15:24.635Z,26.64
2023-05-20T12:16:24.640Z,26.64
2023-05-20T12:17:24.617Z,26.66
2023-05-20T12:18:24.616Z,26.64
2023-05-20T12:19:24.653Z,26.64
2023-05-20T12:20:24.673Z,26.68
2023-05-20T12:21:24.569Z,26.64
2023-05-20T12:22:24.595Z,26.64
2023-05-20T12:23:24.591Z,26.64
2023-05-20T12:24:24.535Z,26.66
2023-05-20T12:25:24.590Z,26.64
2023-05-20T12:26:24.558Z,26.64
2023-05-20T12:27:24.532Z,26.63
2023-05-20T12:28:24.546Z,26.66
2023-05-20T12:29:24.549Z,26.63
2023-05-20T12:30:24.562Z,26.69
2023-05-20T12:31:24.651Z,26.64
2023-05-20T12:32:24.792Z,26.64
2023-05-20T12:33:24.654Z,26.66
2023-05-20T12:34:24.683Z,26.66
2023-05-20T12:35:24.719Z,26.66
2023-05-20T12:36:24.730Z,26.66
2023-05-20T12:37:24.743Z,26.64
2023-05-20T12:38:24.766Z,26.69
2023-05-20T12:39:24.762Z,26.68
2023-05-20T12:40:24.800Z,26.64
2023-05-20T12:41:24.806Z,26.66
2023-05-20T12:42:24.892Z,26.66
2023-05-20T12:43:24.888Z,26.68
2023-05-20T12:44:24.911Z,26.68
2023-05-20T12:45:24.995Z,26.66
2023-05-20T12:46:25.008Z,26.68
2023-05-20T12:47:25.066Z,26.68
2023-05-20T12:48:25.073Z,26.68
2023-05-20T12:49:25.096Z,26.68
2023-05-20T12:50:25.123Z,26.70
2023-05-20T12:51:25.207Z,26.69
2023-05-20T12:52:25.223Z,26.69